Time;durP1;ratioP1;P1;durP2;ratioP2;P2;SDS_P1;SDS_P2;PMS_P1;PMS_P2;Temp;Humidity;BMP_temperature;BMP_pressure;BME280_temperature;BME280_humidity;BME280_pressure;Samples;Min_cycle;Max_cycle;Signal;HPM_P1;HPM_P2
2022/06/08 00:02:08;;;;;;;0.70;0.50;;;14.10;99.90;;;;;;5093294;28;20716;-84
2022/06/08 00:04:36;;;;;;;0.77;0.70;;;14.10;99.90;;;;;;5099058;28;20605;-85
2022/06/08 00:07:04;;;;;;;2.90;1.30;;;14.10;99.90;;;;;;5104214;28;20603;-86
2022/06/08 00:09:31;;;;;;;0.60;0.60;;;14.10;99.90;;;;;;5104684;28;21557;-85
2022/06/08 00:11:58;;;;;;;0.80;0.80;;;14.00;99.90;;;;;;5095182;28;21346;-84
2022/06/08 00:14:28;;;;;;;0.93;0.87;;;14.10;99.90;;;;;;5102491;28;20995;-83
2022/06/08 00:16:55;;;;;;;0.80;0.80;;;;;;;;;;5096049;28;20686;-84
2022/06/08 00:19:23;;;;;;;0.73;0.70;;;14.20;99.90;;;;;;5102663;28;20621;-85
2022/06/08 00:21:51;;;;;;;0.97;0.97;;;14.10;99.90;;;;;;5089989;28;20642;-84
2022/06/08 00:24:19;;;;;;;0.93;0.90;;;14.10;99.90;;;;;;5103326;28;20712;-84
2022/06/08 00:26:48;;;;;;;1.00;0.90;;;14.00;99.90;;;;;;5108696;28;20723;-85
2022/06/08 00:29:15;;;;;;;1.30;1.20;;;14.10;99.90;;;;;;5105938;28;20629;-87
2022/06/08 00:31:45;;;;;;;0.80;0.57;;;14.10;99.90;;;;;;5093193;28;21548;-84
2022/06/08 00:34:13;;;;;;;0.80;0.70;;;14.10;99.90;;;;;;5109964;28;20632;-84
2022/06/08 00:36:40;;;;;;;0.60;0.50;;;14.10;99.90;;;;;;5094872;28;20627;-84
2022/06/08 00:39:09;;;;;;;1.03;0.90;;;14.10;99.90;;;;;;5109951;28;20606;-85
2022/06/08 00:41:43;;;;;;;1.23;1.13;;;14.10;99.90;;;;;;5108532;28;20946;-85
2022/06/08 00:44:17;;;;;;;1.37;0.90;;;14.10;99.90;;;;;;5098895;28;20627;-85
2022/06/08 00:46:47;;;;;;;0.87;0.63;;;14.10;99.90;;;;;;5094133;28;20790;-82
2022/06/08 00:49:21;;;;;;;0.93;0.90;;;14.10;99.90;;;;;;5102355;27;21009;-83
2022/06/08 00:51:49;;;;;;;1.70;1.17;;;14.00;99.90;;;;;;5088837;28;21041;-85
2022/06/08 00:54:24;;;;;;;0.80;0.80;;;13.90;99.90;;;;;;5092044;28;20639;-85
2022/06/08 00:56:55;;;;;;;1.20;1.10;;;13.90;99.90;;;;;;5087772;28;20626;-84
2022/06/08 00:59:22;;;;;;;0.93;0.87;;;13.90;99.90;;;;;;5091411;28;21252;-86
2022/06/08 01:01:51;;;;;;;0.90;0.80;;;13.90;99.90;;;;;;5101385;28;21055;-85
2022/06/08 01:04:20;;;;;;;1.57;0.80;;;13.90;99.90;;;;;;5108811;28;20632;-85
2022/06/08 01:06:53;;;;;;;0.97;0.93;;;13.90;99.90;;;;;;5097777;28;20636;-86
2022/06/08 01:09:28;;;;;;;0.83;0.60;;;13.90;99.90;;;;;;5099878;28;20998;-85
2022/06/08 01:12:01;;;;;;;1.30;0.87;;;13.80;99.90;;;;;;5094669;28;20616;-84
2022/06/08 01:14:29;;;;;;;0.60;0.60;;;13.90;99.90;;;;;;5089734;28;21156;-85
2022/06/08 01:17:03;;;;;;;1.23;1.13;;;13.90;99.90;;;;;;5095229;28;20711;-84
2022/06/08 01:19:35;;;;;;;2.00;0.87;;;13.90;99.90;;;;;;5091053;28;20624;-83
2022/06/08 01:22:06;;;;;;;1.27;0.87;;;13.90;99.90;;;;;;5098609;28;20628;-86
2022/06/08 01:24:35;;;;;;;1.03;1.00;;;13.80;99.90;;;;;;5090134;28;20674;-85
2022/06/08 01:27:20;;;;;;;0.67;0.53;;;13.80;99.90;;;;;;5108021;28;20615;-84
2022/06/08 01:29:58;;;;;;;0.67;0.67;;;13.70;99.90;;;;;;5107187;28;20988;-86
2022/06/08 01:32:34;;;;;;;0.70;0.67;;;13.70;99.90;;;;;;5088511;28;21357;-86
2022/06/08 01:35:16;;;;;;;0.87;0.83;;;13.80;99.90;;;;;;5106921;28;20646;-86
2022/06/08 01:37:55;;;;;;;0.60;0.60;;;13.80;99.90;;;;;;5102466;28;20630;-84
2022/06/08 01:40:52;;;;;;;0.50;0.50;;;13.80;99.90;;;;;;5106663;28;20627;-85
2022/06/08 01:43:28;;;;;;;0.60;0.60;;;13.70;99.90;;;;;;5088183;28;20654;-85
2022/06/08 01:46:10;;;;;;;1.07;0.97;;;13.70;99.90;;;;;;5101296;28;20633;-84
2022/06/08 01:48:57;;;;;;;0.93;0.83;;;13.70;99.90;;;;;;5088366;28;20643;-85
2022/06/08 01:51:50;;;;;;;0.87;0.70;;;13.70;99.90;;;;;;5097911;28;20619;-85
2022/06/08 01:54:35;;;;;;;0.87;0.87;;;13.70;99.90;;;;;;5090436;28;20646;-84
2022/06/08 01:57:15;;;;;;;0.77;0.77;;;13.60;99.90;;;;;;5102394;28;21246;-83
2022/06/08 01:59:48;;;;;;;1.07;1.03;;;13.70;99.90;;;;;;5100827;28;20620;-84
2022/06/08 02:02:26;;;;;;;0.70;0.70;;;13.60;99.90;;;;;;5104774;28;20656;-84
2022/06/08 02:04:57;;;;;;;2.23;2.03;;;13.50;99.90;;;;;;5089632;28;20648;-85
2022/06/08 02:07:33;;;;;;;1.03;0.87;;;13.50;99.90;;;;;;5088449;28;20621;-84
2022/06/08 02:10:08;;;;;;;1.80;1.03;;;13.60;99.90;;;;;;5088932;28;21548;-85
2022/06/08 02:12:40;;;;;;;0.63;0.63;;;13.50;99.90;;;;;;5107303;28;21202;-84
2022/06/08 02:15:13;;;;;;;1.90;1.80;;;13.50;99.90;;;;;;5106453;28;21521;-83
2022/06/08 02:17:44;;;;;;;2.03;1.30;;;13.40;99.90;;;;;;5088121;28;20668;-85
2022/06/08 02:20:18;;;;;;;1.23;1.13;;;13.30;99.90;;;;;;5088156;28;21275;-84
2022/06/08 02:22:51;;;;;;;1.00;1.00;;;13.30;99.90;;;;;;5088999;28;20628;-84
2022/06/08 02:25:25;;;;;;;1.37;1.27;;;13.20;99.90;;;;;;5087199;28;20655;-85
2022/06/08 02:28:00;;;;;;;1.10;1.00;;;13.40;99.90;;;;;;5088515;28;20634;-83
2022/06/08 02:30:30;;;;;;;1.37;1.07;;;13.40;99.90;;;;;;5088032;28;20641;-85
2022/06/08 02:35:57;;;;;;;1.67;1.57;;;13.30;99.90;;;;;;5089855;28;20910;-85
2022/06/08 02:38:33;;;;;;;1.60;1.50;;;13.30;99.90;;;;;;5100299;28;20651;-84
2022/06/08 02:41:06;;;;;;;1.00;0.90;;;13.20;99.90;;;;;;5096668;28;20656;-84
2022/06/08 02:43:36;;;;;;;1.50;1.23;;;13.00;99.90;;;;;;5091947;28;21019;-84
2022/06/08 02:46:08;;;;;;;0.97;0.97;;;13.10;99.90;;;;;;5094694;28;20639;-85
2022/06/08 02:48:35;;;;;;;0.80;0.77;;;13.10;99.90;;;;;;5101293;27;20737;-84
2022/06/08 02:51:04;;;;;;;0.60;0.57;;;13.10;99.90;;;;;;5099073;28;20654;-85
2022/06/08 02:53:57;;;;;;;1.60;0.83;;;13.10;99.90;;;;;;5101722;28;20631;-85
2022/06/08 02:57:03;;;;;;;1.07;1.00;;;13.10;99.90;;;;;;5091401;28;20664;-85
2022/06/08 02:59:40;;;;;;;0.60;0.50;;;13.10;99.90;;;;;;5049274;28;20682;-84
2022/06/08 03:02:12;;;;;;;0.93;0.77;;;13.10;99.90;;;;;;5047286;28;20671;-84
2022/06/08 03:04:46;;;;;;;0.70;0.53;;;13.00;99.90;;;;;;5078898;28;20713;-84
2022/06/08 03:07:18;;;;;;;1.20;1.10;;;13.00;99.90;;;;;;5092175;28;20616;-84
2022/06/08 03:09:46;;;;;;;2.40;1.33;;;13.00;99.90;;;;;;5091433;28;20702;-85
2022/06/08 03:12:20;;;;;;;2.00;1.00;;;13.00;99.90;;;;;;5104068;28;20668;-85
2022/06/08 03:14:48;;;;;;;1.00;1.00;;;13.00;99.90;;;;;;5103484;28;21213;-84
2022/06/08 03:17:17;;;;;;;0.60;0.60;;;12.90;99.90;;;;;;5091023;28;20693;-83
2022/06/08 03:19:44;;;;;;;1.60;1.00;;;12.90;99.90;;;;;;5096203;28;20629;-85
2022/06/08 03:22:14;;;;;;;1.23;1.10;;;12.90;99.90;;;;;;5107600;28;20643;-85
2022/06/08 03:24:42;;;;;;;1.10;1.00;;;12.90;99.90;;;;;;5104167;28;20627;-87
2022/06/08 03:27:09;;;;;;;1.30;1.20;;;12.90;99.90;;;;;;5108645;28;20631;-85
2022/06/08 03:29:37;;;;;;;0.80;0.80;;;13.00;99.90;;;;;;5097956;28;20682;-84
2022/06/08 03:32:06;;;;;;;5.23;1.10;;;13.10;99.90;;;;;;5093747;28;20673;-84
2022/06/08 03:34:33;;;;;;;0.73;0.70;;;13.10;99.90;;;;;;5093885;28;20724;-84
2022/06/08 03:37:00;;;;;;;1.67;1.57;;;13.10;99.90;;;;;;5097590;28;20660;-85
2022/06/08 03:39:26;;;;;;;1.97;1.47;;;13.10;99.90;;;;;;5103722;28;20969;-84
2022/06/08 03:41:53;;;;;;;1.13;1.03;;;13.10;99.90;;;;;;5107896;28;20735;-86
2022/06/08 03:44:20;;;;;;;0.87;0.87;;;13.00;99.90;;;;;;5108704;28;21173;-86
2022/06/08 03:46:53;;;;;;;5.43;1.20;;;13.00;99.90;;;;;;5105464;28;20611;-86
2022/06/08 03:49:20;;;;;;;0.93;0.83;;;13.10;99.90;;;;;;5110316;28;20643;-85
2022/06/08 03:51:48;;;;;;;1.03;1.03;;;13.00;99.90;;;;;;5101265;28;20632;-84
2022/06/08 03:54:18;;;;;;;1.53;0.80;;;13.00;99.90;;;;;;5106492;28;21035;-84
2022/06/08 03:56:49;;;;;;;0.73;0.73;;;13.10;99.90;;;;;;5101756;28;20649;-84
2022/06/08 03:59:16;;;;;;;1.27;0.83;;;13.10;99.90;;;;;;5105023;28;20612;-84
2022/06/08 04:01:44;;;;;;;1.77;1.20;;;13.20;99.90;;;;;;5107095;28;21208;-83
2022/06/08 04:04:13;;;;;;;1.40;1.30;;;13.30;99.90;;;;;;5110390;28;20643;-83
2022/06/08 04:06:39;;;;;;;0.87;0.87;;;13.40;99.90;;;;;;5105397;28;20949;-84
2022/06/08 04:09:06;;;;;;;1.63;1.43;;;13.40;99.90;;;;;;5089926;28;20658;-86
2022/06/08 04:11:33;;;;;;;0.70;0.70;;;13.40;99.90;;;;;;5107825;28;21588;-84
2022/06/08 04:14:01;;;;;;;1.00;1.00;;;13.50;99.90;;;;;;5105838;28;21233;-85
2022/06/08 04:16:29;;;;;;;0.87;0.87;;;13.70;99.90;;;;;;5102836;28;20656;-85
2022/06/08 04:18:56;;;;;;;0.90;0.83;;;13.60;99.90;;;;;;5092694;28;20714;-84
2022/06/08 04:21:26;;;;;;;1.33;1.23;;;13.70;99.90;;;;;;5092803;28;20663;-84
2022/06/08 04:23:53;;;;;;;0.60;0.60;;;13.60;99.90;;;;;;5089199;28;20631;-84
2022/06/08 04:26:21;;;;;;;0.70;0.63;;;13.70;99.90;;;;;;5090323;28;20609;-83
2022/06/08 04:28:48;;;;;;;0.73;0.73;;;13.70;99.90;;;;;;5093739;28;20727;-84
2022/06/08 04:31:16;;;;;;;1.30;0.70;;;13.80;99.90;;;;;;5106358;28;20678;-86
2022/06/08 04:33:43;;;;;;;0.67;0.67;;;13.70;99.90;;;;;;5089497;28;20648;-84
2022/06/08 04:36:10;;;;;;;1.33;0.83;;;13.80;99.90;;;;;;5101074;28;20692;-84
2022/06/08 04:38:39;;;;;;;0.60;0.60;;;13.80;99.90;;;;;;5090290;28;20737;-84
2022/06/08 04:41:07;;;;;;;1.10;1.00;;;13.80;99.90;;;;;;5104955;28;20728;-83
2022/06/08 04:43:34;;;;;;;0.70;0.70;;;13.80;99.90;;;;;;5109821;28;20971;-83
2022/06/08 04:46:01;;;;;;;2.20;0.97;;;13.80;99.90;;;;;;5102697;28;21038;-82
2022/06/08 04:48:28;;;;;;;3.27;1.17;;;13.90;99.90;;;;;;5088575;28;20652;-84
2022/06/08 04:50:55;;;;;;;0.70;0.70;;;13.80;99.90;;;;;;5105718;28;21180;-84
2022/06/08 04:53:22;;;;;;;0.93;0.80;;;13.80;99.90;;;;;;5098671;28;21182;-83
2022/06/08 04:55:50;;;;;;;0.80;0.40;;;13.80;99.90;;;;;;5088696;28;21247;-83
2022/06/08 04:58:20;;;;;;;0.53;0.53;;;13.70;99.90;;;;;;5091147;28;20633;-84
2022/06/08 05:00:47;;;;;;;0.40;0.30;;;13.60;99.90;;;;;;5089808;28;20616;-83
2022/06/08 05:03:14;;;;;;;0.80;0.80;;;13.60;99.90;;;;;;5110299;27;20651;-84
2022/06/08 05:05:41;;;;;;;0.53;0.53;;;13.70;99.90;;;;;;5101115;28;20731;-84
2022/06/08 05:08:09;;;;;;;0.70;0.70;;;13.80;99.90;;;;;;5090419;28;20643;-83
2022/06/08 05:10:37;;;;;;;0.60;0.60;;;13.90;99.90;;;;;;5095644;28;20611;-84
2022/06/08 05:13:07;;;;;;;1.03;0.90;;;14.00;99.90;;;;;;5090327;28;20609;-84
2022/06/08 05:15:36;;;;;;;1.47;0.70;;;14.00;99.90;;;;;;5091104;28;21324;-84
2022/06/08 05:18:05;;;;;;;0.60;0.60;;;14.10;99.90;;;;;;5107469;28;21268;-84
2022/06/08 05:20:33;;;;;;;0.83;0.80;;;14.10;99.90;;;;;;5099879;28;20641;-83
2022/06/08 05:23:01;;;;;;;1.57;1.20;;;14.10;99.90;;;;;;5093801;28;21221;-83
2022/06/08 05:25:31;;;;;;;0.73;0.73;;;14.20;99.90;;;;;;5110682;28;20616;-84
2022/06/08 05:27:58;;;;;;;0.83;0.83;;;14.30;99.90;;;;;;5107014;28;21156;-83
2022/06/08 05:30:27;;;;;;;0.90;0.90;;;14.40;99.90;;;;;;5110365;28;20647;-83
2022/06/08 05:32:54;;;;;;;1.20;0.80;;;14.30;99.90;;;;;;5093209;28;20628;-83
2022/06/08 05:35:23;;;;;;;0.97;0.90;;;14.20;99.90;;;;;;5107561;28;20659;-83
2022/06/08 05:37:50;;;;;;;1.10;1.00;;;14.20;99.90;;;;;;5109227;28;20730;-83
2022/06/08 05:40:17;;;;;;;0.77;0.77;;;14.30;99.90;;;;;;5109919;28;20642;-83
2022/06/08 05:42:44;;;;;;;0.80;0.80;;;14.40;99.90;;;;;;5096344;28;20715;-84
2022/06/08 05:45:17;;;;;;;0.50;0.50;;;14.40;99.90;;;;;;5094320;28;21047;-84
2022/06/08 05:47:46;;;;;;;0.67;0.40;;;14.60;99.90;;;;;;5099636;28;20624;-83
2022/06/08 05:50:13;;;;;;;0.60;0.60;;;14.60;99.90;;;;;;5107617;28;20632;-83
2022/06/08 05:52:40;;;;;;;0.70;0.60;;;14.70;99.90;;;;;;5106771;28;20639;-85
2022/06/08 05:55:09;;;;;;;0.40;0.33;;;14.70;99.90;;;;;;5110280;28;21160;-83
2022/06/08 05:57:36;;;;;;;0.70;0.47;;;14.80;99.90;;;;;;5109272;28;20649;-83
2022/06/08 06:00:06;;;;;;;1.43;0.63;;;14.70;99.90;;;;;;5110547;28;20676;-83
2022/06/08 06:02:33;;;;;;;0.73;0.67;;;14.70;99.90;;;;;;5103105;28;21222;-83
2022/06/08 06:05:03;;;;;;;0.57;0.57;;;14.70;99.90;;;;;;5103610;28;20624;-83
2022/06/08 06:07:30;;;;;;;0.57;0.57;;;14.80;99.90;;;;;;5091276;28;21240;-83
2022/06/08 06:10:02;;;;;;;0.60;0.60;;;15.00;99.90;;;;;;5097377;28;20710;-84
2022/06/08 06:12:29;;;;;;;0.70;0.60;;;15.10;99.90;;;;;;5113378;27;20619;-83
2022/06/08 06:14:56;;;;;;;0.90;0.80;;;15.20;99.90;;;;;;5111345;28;21188;-84
2022/06/08 06:17:22;;;;;;;0.97;0.47;;;15.20;99.90;;;;;;5104113;27;20743;-83
2022/06/08 06:19:49;;;;;;;0.43;0.40;;;15.20;99.90;;;;;;5111468;28;20710;-83
2022/06/08 06:22:17;;;;;;;1.20;1.10;;;15.30;99.90;;;;;;5101288;28;20727;-86
2022/06/08 06:24:44;;;;;;;0.83;0.83;;;15.40;99.90;;;;;;5097692;28;20628;-83
2022/06/08 06:27:11;;;;;;;1.03;0.63;;;15.40;99.90;;;;;;5094780;28;20651;-84
2022/06/08 06:29:38;;;;;;;0.80;0.77;;;15.50;99.90;;;;;;5108129;28;20676;-84
2022/06/08 06:32:09;;;;;;;0.53;0.50;;;15.50;99.90;;;;;;5100274;28;20700;-83
2022/06/08 06:34:35;;;;;;;0.60;0.60;;;15.50;99.90;;;;;;5094416;28;20666;-83
2022/06/08 06:37:02;;;;;;;0.90;0.80;;;15.60;99.90;;;;;;5101949;28;20655;-86
2022/06/08 06:39:31;;;;;;;0.87;0.87;;;15.70;99.90;;;;;;5107134;28;20623;-84
2022/06/08 06:41:59;;;;;;;1.03;0.70;;;15.80;99.90;;;;;;5099127;28;21431;-83
2022/06/08 06:44:26;;;;;;;0.60;0.50;;;15.90;99.90;;;;;;5100697;28;21167;-84
2022/06/08 06:46:53;;;;;;;0.60;0.60;;;15.90;99.90;;;;;;5097981;28;20619;-83
2022/06/08 06:49:20;;;;;;;1.00;0.70;;;16.00;99.90;;;;;;5113868;28;20627;-84
2022/06/08 06:51:47;;;;;;;0.60;0.60;;;16.10;99.90;;;;;;5106834;28;20621;-84
2022/06/08 06:54:14;;;;;;;0.87;0.60;;;16.10;99.90;;;;;;5101692;28;22019;-83
2022/06/08 06:56:42;;;;;;;0.93;0.90;;;16.20;99.90;;;;;;5108853;28;20651;-84
2022/06/08 06:59:09;;;;;;;0.73;0.40;;;16.20;99.90;;;;;;5101121;27;20638;-83
2022/06/08 07:01:36;;;;;;;1.00;0.70;;;16.30;99.90;;;;;;5093935;28;20669;-84
2022/06/08 07:04:03;;;;;;;0.63;0.63;;;16.30;99.90;;;;;;5093116;28;20657;-84
2022/06/08 07:06:30;;;;;;;0.90;0.90;;;16.30;99.90;;;;;;5101680;28;20643;-84
2022/06/08 07:08:59;;;;;;;1.23;1.13;;;16.20;99.90;;;;;;5101258;28;20622;-83
2022/06/08 07:11:40;;;;;;;0.40;0.40;;;16.40;99.90;;;;;;5101853;28;20731;-83
2022/06/08 07:14:13;;;;;;;0.57;0.40;;;16.40;99.90;;;;;;5105962;28;20662;-84
2022/06/08 07:16:40;;;;;;;0.70;0.70;;;16.40;99.90;;;;;;5111809;28;20735;-84
2022/06/08 07:19:08;;;;;;;1.00;1.00;;;16.50;99.90;;;;;;5109902;28;20692;-83
2022/06/08 07:21:36;;;;;;;0.53;0.53;;;16.50;99.90;;;;;;5105921;28;20684;-84
2022/06/08 07:24:03;;;;;;;0.63;0.60;;;16.50;99.90;;;;;;5112419;28;20659;-84
2022/06/08 07:26:30;;;;;;;1.60;0.70;;;16.50;99.90;;;;;;5097584;28;20651;-83
2022/06/08 07:28:58;;;;;;;0.70;0.50;;;16.50;99.90;;;;;;5094274;28;20621;-83
2022/06/08 07:31:28;;;;;;;0.63;0.63;;;16.90;99.90;;;;;;5102688;28;20628;-83
2022/06/08 07:33:55;;;;;;;0.70;0.70;;;16.80;99.90;;;;;;5093818;28;20613;-85
2022/06/08 07:36:22;;;;;;;0.97;0.53;;;16.90;99.90;;;;;;5101580;28;20635;-85
2022/06/08 07:38:50;;;;;;;1.00;0.83;;;17.10;99.90;;;;;;5093593;28;21276;-84
2022/06/08 07:41:17;;;;;;;0.90;0.77;;;17.00;99.90;;;;;;5095197;28;20620;-84
2022/06/08 07:43:44;;;;;;;0.60;0.60;;;17.10;99.90;;;;;;5094040;28;21215;-84
2022/06/08 07:46:14;;;;;;;0.70;0.70;;;17.10;99.50;;;;;;5092782;28;20620;-84
2022/06/08 07:51:36;;;;;;;1.03;0.57;;;17.00;99.20;;;;;;5067520;28;20960;-84
2022/06/08 07:54:03;;;;;;;0.80;0.50;;;17.10;99.90;;;;;;5104336;28;20619;-84
2022/06/08 07:56:31;;;;;;;0.53;0.53;;;17.00;99.90;;;;;;5108482;28;20639;-84
2022/06/08 07:58:58;;;;;;;0.50;0.50;;;17.20;99.50;;;;;;5111137;28;20615;-84
2022/06/08 08:01:26;;;;;;;2.00;0.97;;;17.40;99.70;;;;;;5101212;28;20632;-85
2022/06/08 08:03:54;;;;;;;0.50;0.50;;;17.50;98.90;;;;;;5100982;28;20608;-85
2022/06/08 08:06:22;;;;;;;0.80;0.70;;;17.50;99.30;;;;;;5097247;28;20719;-83
2022/06/08 08:08:50;;;;;;;1.07;0.50;;;17.60;99.80;;;;;;5101451;28;21026;-84
2022/06/08 08:11:17;;;;;;;0.83;0.40;;;17.60;98.30;;;;;;5103606;28;20628;-85
2022/06/08 08:13:45;;;;;;;0.63;0.63;;;17.80;98.50;;;;;;5098026;28;20620;-84
2022/06/08 08:16:13;;;;;;;0.87;0.70;;;18.00;98.80;;;;;;5096960;28;20621;-84
2022/06/08 08:18:39;;;;;;;0.93;0.70;;;18.00;97.80;;;;;;5092451;28;21266;-84
2022/06/08 08:21:08;;;;;;;0.80;0.63;;;18.00;97.10;;;;;;5095567;28;21357;-84
2022/06/08 08:23:36;;;;;;;0.90;0.70;;;18.10;96.40;;;;;;5099746;28;20740;-84
2022/06/08 08:26:04;;;;;;;1.10;0.70;;;18.40;95.70;;;;;;5110223;28;20682;-85
2022/06/08 08:28:32;;;;;;;1.80;0.30;;;18.50;95.50;;;;;;5094976;28;20617;-84
2022/06/08 08:30:58;;;;;;;0.50;0.40;;;18.40;95.90;;;;;;5092218;28;20620;-85
2022/06/08 08:33:25;;;;;;;0.50;0.50;;;18.30;96.10;;;;;;5092810;28;20640;-85
2022/06/08 08:35:54;;;;;;;0.77;0.73;;;18.30;96.60;;;;;;5100233;28;20715;-85
2022/06/08 08:38:23;;;;;;;0.73;0.60;;;18.40;96.70;;;;;;5105826;28;20639;-84
2022/06/08 08:40:52;;;;;;;0.73;0.73;;;18.80;95.80;;;;;;5110147;28;20700;-83
2022/06/08 08:43:22;;;;;;;0.83;0.67;;;18.90;95.50;;;;;;5108789;28;20619;-85
2022/06/08 08:46:21;;;;;;;0.60;0.60;;;19.10;95.10;;;;;;5100452;28;21470;-83
2022/06/08 08:48:53;;;;;;;0.40;0.40;;;19.20;94.50;;;;;;5104820;28;20623;-84
2022/06/08 08:51:26;;;;;;;0.90;0.90;;;19.40;94.40;;;;;;5109659;28;20672;-83
2022/06/08 08:54:22;;;;;;;1.03;0.63;;;19.50;94.70;;;;;;5102070;28;21154;-85
2022/06/08 08:56:53;;;;;;;0.70;0.60;;;19.60;94.60;;;;;;5092142;28;20659;-84
2022/06/08 08:59:23;;;;;;;0.53;0.53;;;19.60;93.80;;;;;;5100037;28;20596;-85
2022/06/08 09:01:53;;;;;;;0.57;0.57;;;19.70;94.20;;;;;;5106243;28;20678;-84
2022/06/08 09:04:29;;;;;;;0.50;0.50;;;20.00;92.80;;;;;;5091939;28;20676;-84
2022/06/08 09:06:57;;;;;;;0.90;0.70;;;20.10;92.30;;;;;;5109619;28;21226;-84
2022/06/08 09:09:30;;;;;;;0.90;0.80;;;20.30;92.30;;;;;;5092896;28;20616;-84
2022/06/08 09:11:58;;;;;;;0.90;0.60;;;20.20;91.90;;;;;;5097075;28;20614;-84
2022/06/08 09:14:45;;;;;;;0.60;0.60;;;20.00;91.20;;;;;;5101624;28;20612;-85
2022/06/08 09:17:15;;;;;;;0.50;0.50;;;19.80;91.20;;;;;;5090369;28;20647;-84
2022/06/08 09:19:47;;;;;;;0.50;0.50;;;19.80;90.60;;;;;;5088919;28;20706;-84
2022/06/08 09:22:24;;;;;;;0.60;0.60;;;20.00;91.20;;;;;;5089153;28;20620;-85
2022/06/08 09:24:57;;;;;;;0.60;0.40;;;20.10;90.70;;;;;;5094641;28;20627;-84
2022/06/08 09:27:27;;;;;;;1.53;0.80;;;20.00;88.00;;;;;;5098390;28;20612;-84
2022/06/08 09:30:03;;;;;;;0.30;0.30;;;20.10;90.20;;;;;;5104565;28;20666;-84
2022/06/08 09:32:34;;;;;;;0.60;0.60;;;20.40;90.10;;;;;;5107097;28;20631;-85
2022/06/08 09:35:05;;;;;;;0.90;0.40;;;20.60;86.40;;;;;;5105155;28;20621;-83
2022/06/08 09:37:33;;;;;;;0.60;0.60;;;20.90;83.50;;;;;;5099906;28;20758;-84
2022/06/08 09:40:02;;;;;;;0.60;0.50;;;21.00;83.50;;;;;;5109054;28;20622;-83
2022/06/08 09:42:53;;;;;;;0.50;0.50;;;20.70;85.20;;;;;;5098662;28;20622;-84
2022/06/08 09:45:47;;;;;;;0.47;0.47;;;20.90;83.60;;;;;;5107559;28;20622;-84
2022/06/08 09:51:27;;;;;;;0.60;0.60;;;21.20;83.00;;;;;;5101125;28;20660;-84
2022/06/08 09:54:05;;;;;;;0.47;0.40;;;21.40;86.90;;;;;;5093341;28;20612;-84
2022/06/08 09:56:48;;;;;;;0.70;0.67;;;21.60;79.10;;;;;;5097329;28;21202;-84
2022/06/08 09:59:26;;;;;;;0.30;0.30;;;21.80;78.50;;;;;;5089506;28;20617;-84
2022/06/08 10:02:00;;;;;;;0.87;0.40;;;21.90;75.60;;;;;;5092223;28;20979;-85
2022/06/08 10:04:42;;;;;;;0.43;0.43;;;21.70;78.80;;;;;;5092534;28;20643;-84
2022/06/08 10:07:17;;;;;;;3.13;1.07;;;21.70;77.80;;;;;;5106695;28;20735;-84
2022/06/08 10:10:00;;;;;;;0.40;0.33;;;21.50;83.40;;;;;;5098211;28;20612;-83
2022/06/08 10:12:40;;;;;;;0.60;0.60;;;21.70;77.30;;;;;;5088371;28;21043;-83
2022/06/08 10:15:15;;;;;;;0.60;0.57;;;21.70;76.00;;;;;;5089734;28;20604;-83
2022/06/08 10:17:48;;;;;;;0.37;0.37;;;21.70;79.10;;;;;;5094426;28;20651;-83
2022/06/08 10:20:22;;;;;;;1.20;0.70;;;21.60;80.50;;;;;;5086871;28;20631;-85
2022/06/08 10:22:53;;;;;;;0.70;0.50;;;21.70;74.40;;;;;;5088888;28;20612;-84
2022/06/08 10:25:25;;;;;;;2.50;0.90;;;21.40;78.30;;;;;;5097382;28;20631;-84
2022/06/08 10:27:58;;;;;;;1.50;0.50;;;21.10;78.00;;;;;;5108283;28;20596;-83
2022/06/08 10:30:30;;;;;;;0.53;0.50;;;21.50;80.80;;;;;;5108424;28;20606;-84
2022/06/08 10:33:02;;;;;;;0.60;0.50;;;22.00;80.90;;;;;;5107587;28;20604;-84
2022/06/08 10:35:36;;;;;;;0.63;0.63;;;22.40;77.50;;;;;;5108191;28;20607;-85
2022/06/08 10:38:06;;;;;;;1.60;0.70;;;22.70;77.70;;;;;;5109048;28;20651;-84
2022/06/08 10:40:48;;;;;;;0.60;0.60;;;22.40;72.40;;;;;;5108615;28;20615;-84
2022/06/08 10:43:21;;;;;;;0.60;0.60;;;22.80;77.10;;;;;;5108375;28;20661;-85
2022/06/08 10:46:01;;;;;;;0.40;0.40;;;23.10;76.60;;;;;;5109800;28;20968;-85
2022/06/08 10:48:45;;;;;;;0.50;0.50;;;23.20;72.50;;;;;;5109149;28;20635;-84
2022/06/08 10:51:35;;;;;;;0.50;0.50;;;23.30;73.90;;;;;;5109486;28;20615;-85
2022/06/08 10:56:52;;;;;;;1.07;0.70;;;23.60;68.90;;;;;;5109206;28;20607;-84
2022/06/08 10:59:24;;;;;;;0.77;0.77;;;23.60;70.50;;;;;;5107345;28;20976;-85
2022/06/08 11:02:00;;;;;;;0.50;0.50;;;24.00;69.20;;;;;;5112864;28;20611;-84
2022/06/08 11:04:51;;;;;;;0.97;0.80;;;23.50;61.50;;;;;;5092064;28;20673;-85
2022/06/08 11:07:22;;;;;;;0.30;0.30;;;23.20;68.20;;;;;;5095059;28;21124;-84
2022/06/08 11:09:56;;;;;;;0.40;0.30;;;23.30;64.40;;;;;;5112561;28;20615;-86
2022/06/08 11:12:40;;;;;;;0.40;0.33;;;23.60;66.60;;;;;;5108524;28;20655;-85
2022/06/08 11:15:21;;;;;;;0.40;0.30;;;23.70;60.20;;;;;;5082768;28;20678;-83
2022/06/08 11:17:58;;;;;;;4.67;0.63;;;24.20;62.30;;;;;;5097488;28;20654;-85
2022/06/08 11:20:32;;;;;;;0.50;0.50;;;24.60;58.90;;;;;;5112207;28;20603;-84
2022/06/08 11:23:03;;;;;;;0.40;0.40;;;24.80;60.80;;;;;;5110742;28;20619;-85
2022/06/08 11:25:33;;;;;;;1.70;0.70;;;25.20;62.90;;;;;;5110351;28;21435;-85
2022/06/08 11:28:33;;;;;;;1.17;1.00;;;25.30;58.50;;;;;;5111579;28;20618;-85
2022/06/08 11:31:04;;;;;;;0.60;0.60;;;24.90;58.80;;;;;;5103225;28;20628;-85
2022/06/08 11:34:07;;;;;;;0.57;0.47;;;25.00;62.30;;;;;;5097900;28;20631;-85
2022/06/08 11:37:11;;;;;;;0.47;0.47;;;25.70;58.10;;;;;;5095080;28;20615;-84
2022/06/08 11:39:48;;;;;;;0.70;0.50;;;25.30;62.20;;;;;;5089458;28;20657;-85
2022/06/08 11:42:24;;;;;;;0.50;0.50;;;25.00;63.90;;;;;;5102942;28;20678;-84
2022/06/08 11:44:55;;;;;;;0.70;0.63;;;25.50;58.50;;;;;;5094488;28;20615;-84
2022/06/08 11:47:30;;;;;;;0.60;0.57;;;25.70;56.50;;;;;;5095825;28;20612;-84
2022/06/08 11:50:01;;;;;;;0.50;0.40;;;25.80;55.50;;;;;;5102139;28;20630;-85
2022/06/08 11:52:32;;;;;;;0.60;0.60;;;25.60;56.80;;;;;;5110502;28;20624;-83
2022/06/08 11:55:20;;;;;;;0.50;0.50;;;25.20;57.20;;;;;;5100908;28;20628;-85
2022/06/08 11:57:54;;;;;;;0.47;0.47;;;24.90;55.90;;;;;;5090619;28;20633;-85
2022/06/08 12:00:26;;;;;;;0.60;0.60;;;25.00;56.00;;;;;;5104010;28;20611;-84
2022/06/08 12:02:59;;;;;;;1.37;0.60;;;25.90;56.70;;;;;;5105289;28;20629;-85
2022/06/08 12:05:31;;;;;;;1.27;0.93;;;27.50;56.30;;;;;;5100448;28;20615;-86
2022/06/08 12:08:04;;;;;;;0.40;0.30;;;28.20;50.70;;;;;;5108964;28;20622;-84
2022/06/08 12:10:35;;;;;;;0.63;0.50;;;27.90;49.10;;;;;;5093530;28;20627;-85
2022/06/08 12:13:03;;;;;;;0.50;0.50;;;28.10;50.80;;;;;;5110623;28;20693;-84
2022/06/08 12:15:44;;;;;;;0.40;0.40;;;27.70;51.30;;;;;;5093839;28;20616;-85
2022/06/08 12:18:26;;;;;;;0.60;0.50;;;26.40;53.60;;;;;;5102927;28;20655;-83
2022/06/08 12:21:23;;;;;;;0.70;0.40;;;25.80;54.10;;;;;;5108146;28;20627;-84
2022/06/08 12:24:07;;;;;;;0.40;0.40;;;25.50;51.70;;;;;;5094173;28;20738;-84
2022/06/08 12:26:41;;;;;;;0.43;0.43;;;25.10;51.90;;;;;;5092455;28;20616;-84
2022/06/08 12:29:23;;;;;;;0.40;0.37;;;25.00;53.30;;;;;;5090145;28;20624;-85
2022/06/08 12:32:00;;;;;;;0.60;0.43;;;24.60;55.40;;;;;;5090088;28;20604;-84
2022/06/08 12:34:36;;;;;;;1.13;0.50;;;24.80;53.90;;;;;;5090023;28;20630;-84
2022/06/08 12:37:24;;;;;;;0.83;0.83;;;24.70;53.80;;;;;;5092992;28;21098;-84
2022/06/08 12:39:51;;;;;;;0.60;0.43;;;24.80;54.70;;;;;;5104880;28;21219;-85
2022/06/08 12:42:26;;;;;;;0.40;0.40;;;25.00;54.20;;;;;;5110119;28;20611;-85
2022/06/08 12:44:55;;;;;;;0.60;0.60;;;25.10;54.00;;;;;;5109900;28;20715;-85
2022/06/08 12:47:26;;;;;;;1.17;0.50;;;25.10;56.00;;;;;;5105926;28;20711;-84
2022/06/08 12:50:01;;;;;;;0.40;0.40;;;25.20;54.60;;;;;;5106448;28;21204;-84
2022/06/08 12:52:32;;;;;;;0.90;0.53;;;25.20;55.60;;;;;;5108299;28;21156;-85
2022/06/08 12:55:00;;;;;;;0.90;0.53;;;25.20;54.30;;;;;;5108911;28;20969;-84
2022/06/08 12:57:31;;;;;;;1.70;0.80;;;25.30;53.90;;;;;;5101769;28;20729;-84
2022/06/08 13:00:02;;;;;;;0.60;0.40;;;25.60;53.60;;;;;;5101993;28;20615;-85
2022/06/08 13:02:32;;;;;;;0.50;0.50;;;25.90;52.10;;;;;;5097150;28;20632;-84
2022/06/08 13:05:02;;;;;;;0.53;0.53;;;26.20;53.20;;;;;;5088631;28;20982;-85
2022/06/08 13:07:32;;;;;;;0.60;0.53;;;25.90;53.20;;;;;;5096148;28;20626;-86
2022/06/08 13:10:00;;;;;;;0.57;0.53;;;25.30;53.40;;;;;;5110703;28;21186;-84
2022/06/08 13:12:37;;;;;;;0.63;0.60;;;25.20;52.80;;;;;;5096636;28;21017;-85
2022/06/08 13:15:14;;;;;;;0.60;0.47;;;25.00;56.10;;;;;;5111037;28;20629;-84
2022/06/08 13:17:42;;;;;;;0.70;0.53;;;24.60;55.10;;;;;;5092979;28;21171;-85
2022/06/08 13:20:17;;;;;;;0.40;0.40;;;24.60;54.70;;;;;;5091220;28;20654;-84
2022/06/08 13:22:45;;;;;;;0.50;0.47;;;24.40;58.60;;;;;;5105062;28;20620;-84
2022/06/08 13:25:16;;;;;;;0.50;0.50;;;24.20;54.20;;;;;;5103730;28;20734;-85